Weather at Arlington Municipal Airport

Public forecast

Using degrees Fahrenheit for public forecast. Weather courtesy of forecast.io.

Current aviation weather report (METAR) for Arlington Municipal Airport

Retrieved 2020/12/01 21:56 UTC (1 hour ago):

KAWO 012156Z AUTO 31009KT 10SM CLR 08/04 A3057 RMK AO2 SLP356 T00780039

Closest aviation forecast (TAF) to Arlington Municipal Airport

Closest forecast is Snohomish County (Paine Field) Airport, 16.1 nm (29.7 km) SSW. Retrieved 2020/12/01 18:27 UTC (5 hours ago):

TAF KPAE 011723Z 0118/0218 00000KT P6SM SCT010 FM011900 02004KT P6SM SCT250 FM020300 04003KT P6SM SKC